Flight Track Log - Related Links

Times and Time Zones

All times are in EDT time to prevent confusion due to time zone crossing. See the RPA4887 flight status page for this flight to view local times or setup timezone preferences in your user account.

Time Position Orientation Groundspeed Altitude Reporting Facility
EDT Latitude Longitude Course Direction KTS MPH feet Rate Location/Type
Thu 12:40:58 PM 35.8633 -78.8547 348° North 198 228 2,500  Level Washington Center
Thu 12:43:06 PM 35.9794 -78.8853 22° Northeast 235 270 7,100 1,897 Climbing Washington Center
Thu 12:43:52 PM 36.0303 -78.8489 30° Northeast 255 293 8,000 1,290 Climbing Washington Center
Thu 12:44:53 PM 36.0961 -78.8078 27° Northeast 278 320 9,400 1,400 Climbing Washington Center
Thu 12:46:52 PM 36.2386 -78.7106 North 289 333 12,200 1,200 Climbing Washington Center
Thu 12:47:53 PM 36.3044 -78.6642 30° Northeast 294 338 13,000 400 Climbing Washington Center
Thu 12:48:52 PM 36.3956 -78.6058 27° Northeast 314 361 13,000 967 Level Washington Center
Thu 12:50:53 PM 36.5767 -78.5378 20° North 335 386 15,900 1,004 Climbing Washington Center
Thu 12:52:51 PM 36.7389 -78.4742 13° North 319 367 17,000 276 Climbing Washington Center
Thu 12:54:52 PM 36.9089 -78.3428 26° Northeast 352 405 17,000 -33 Level Washington Center
Thu 12:55:53 PM 36.9983 -78.2706 33° Northeast 368 423 16,900 -419 Descending Washington Center
Thu 12:59:53 PM 37.3550 -77.9772 24° Northeast 379 436 14,900 -399 Descending Washington Center
Thu 01:00:54 PM 37.4419 -77.9017 35° Northeast 379 436 14,900  Level Washington Center
Thu 01:01:52 PM 37.5289 -77.8256 35° Northeast 379 436 14,900  Level Washington Center
Thu 01:02:53 PM 37.6258 -77.7708 24° Northeast 374 430 14,900  Level Washington Center
Thu 01:03:52 PM 37.7228 -77.7158 24° Northeast 374 430 14,900 50 Level Washington Center
Thu 01:04:53 PM 37.8175 -77.6581 26° Northeast 374 430 15,000 -900 Climbing Washington Center
Thu 01:07:52 PM 38.1019 -77.4969 21° North 364 419 11,300 -1,250 Descending Washington Center
Thu 01:08:53 PM 38.1883 -77.4408 27° Northeast 354 407 10,000 -650 Descending Washington Center
Thu 01:09:52 PM 38.2764 -77.3928 23° Northeast 343 395 10,000  Level Washington Center
Thu 01:10:53 PM 38.3647 -77.3528 20° North 343 395 10,000 -246 Level Washington Center
Thu 01:11:54 PM 38.4542 -77.3600 356° North 325 374 9,500 -1,409 Descending Washington Center
Thu 01:15:00 PM 38.7167 -77.3667 339° North 280 322 4,200 -1,336 Descending Potomac TRACON
Thu 01:16:01 PM 38.8000 -77.3500 North 273 314 4,000 -66 Descending Potomac TRACON
Thu 01:18:01 PM 38.9500 -77.3500 360° North 274 315 4,000 -467 Level Potomac TRACON
Thu 01:22:01 PM 39.0000 -77.4333 339° North 168 193 1,200 -680 Descending Potomac TRACON
Thu 01:23:01 PM 38.9667 -77.4333 180° South 124 143 600 -600 Descending Potomac TRACON
Thu 01:25:00 PM 38.9474 -77.4599 339° North  Level Estimated
Thu 01:27:00 PM 38.9474 -77.4599 339° North  Level Estimated
Thu 01:32:00 PM 38.9474 -77.4599 339° North  Level Estimated
Thu 01:33:00 PM 38.9474 -77.4599 339° North  Level Estimated
Thu 01:34:00 PM 38.9474 -77.4599 339° North  Level Estimated
Thu 01:35:00 PM 38.9474 -77.4599 339° North  Level Estimated
Thu 01:36:00 PM 38.9474 -77.4599 339° North  Level Estimated
Thu 01:37:00 PM 38.9474 -77.4599 339° North  Level Estimated
Thu 01:38:00 PM 38.9474 -77.4599 339° North  Level Estimated
Thu 01:39:00 PM 38.9474 -77.4599 339° North  Level Estimated
Thu 01:40:00 PM 38.9474 -77.4599 339° North  Level Estimated

Login

Don't have an account? Register now (free) for customized features, flight alerts, and more!